createdAt,value
2018-10-19T07:09:44.537Z,42.30
2018-10-19T07:12:33.913Z,42.13
2018-10-19T07:21:33.756Z,39.10
2018-10-19T07:24:09.589Z,36.63
2018-10-19T08:08:25.322Z,28.43
2018-10-19T08:11:01.843Z,28.57
2018-10-19T08:13:41.063Z,30.53
2018-10-19T08:16:17.236Z,29.03
2018-10-19T08:18:53.735Z,29.67
2018-10-19T08:21:29.640Z,31.50
2018-10-19T08:24:05.671Z,26.03
2018-10-19T08:26:40.598Z,25.63
2018-10-19T08:30:49.477Z,29.30
2018-10-19T08:45:35.955Z,29.67
2018-10-19T08:48:10.677Z,28.70
2018-10-19T08:50:45.689Z,29.90
2018-10-19T08:53:21.785Z,28.07
2018-10-19T08:55:56.247Z,28.90
2018-10-19T08:58:30.941Z,30.30
2018-10-19T09:01:06.692Z,30.80
2018-10-19T09:03:54.333Z,35.63
2018-10-19T09:06:32.522Z,29.33
2018-10-19T09:09:10.916Z,34.07
2018-10-19T09:11:45.502Z,31.80
2018-10-19T09:14:35.614Z,36.87
2018-10-19T09:17:11.778Z,30.23
2018-10-19T09:19:48.061Z,30.37
2018-10-19T09:22:22.667Z,29.23
2018-10-19T09:27:46.302Z,33.30
2018-10-19T09:30:21.560Z,33.73
2018-10-19T09:32:56.397Z,41.30
2018-10-19T09:35:30.937Z,29.90
2018-10-19T09:38:05.740Z,27.63
2018-10-19T09:40:40.997Z,30.57
2018-10-19T09:43:15.386Z,34.53
2018-10-19T09:45:50.356Z,34.30
2018-10-19T09:48:24.904Z,30.63
2018-10-19T09:50:59.307Z,28.67
2018-10-19T09:53:34.972Z,37.70
2018-10-19T09:56:09.382Z,28.70
2018-10-19T09:58:43.914Z,38.77
2018-10-19T10:04:07.395Z,41.30
2018-10-19T10:06:42.430Z,37.83
2018-10-19T10:09:18.032Z,38.23
2018-10-19T10:11:52.529Z,34.20
2018-10-19T10:14:28.047Z,38.57
2018-10-19T10:17:10.270Z,36.90
2018-10-19T10:19:45.612Z,34.13
2018-10-19T10:22:20.012Z,32.73
2018-10-19T10:24:54.602Z,37.07
2018-10-19T10:27:29.652Z,35.93
2018-10-19T10:32:45.760Z,43.10
2018-10-19T10:35:20.204Z,36.13
2018-10-19T10:37:54.824Z,40.57
2018-10-19T10:40:30.150Z,38.60
2018-10-19T10:43:04.716Z,34.03
2018-10-19T10:45:40.183Z,36.20
2018-10-19T10:48:27.620Z,33.90
2018-10-19T10:51:07.143Z,35.60
2018-10-19T10:56:45.085Z,36.30
2018-10-19T10:59:20.857Z,40.60
2018-10-19T11:01:56.478Z,43.77
2018-10-19T11:04:31.575Z,32.07
2018-10-19T11:07:06.744Z,35.17
2018-10-19T11:09:41.117Z,40.47
2018-10-19T11:12:16.171Z,34.40
2018-10-19T11:14:51.310Z,34.87
2018-10-19T11:17:26.767Z,32.30
2018-10-19T11:20:02.260Z,37.53
2018-10-19T11:22:36.597Z,36.93
2018-10-19T11:25:11.054Z,37.50
2018-10-19T11:27:45.395Z,34.37
2018-10-19T11:30:20.589Z,33.10
2018-10-19T11:32:55.907Z,36.97
2018-10-19T11:35:30.344Z,29.47
2018-10-19T11:38:04.936Z,29.93
2018-10-19T11:40:40.437Z,32.67
2018-10-19T11:43:14.928Z,32.60
2018-10-19T11:45:50.231Z,33.43
2018-10-19T11:48:24.743Z,29.40
2018-10-19T11:50:59.451Z,33.60
2018-10-19T11:53:35.463Z,30.13
2018-10-19T11:56:10.072Z,31.80
2018-10-19T11:58:44.961Z,35.97
2018-10-19T12:01:19.797Z,31.80
2018-10-19T12:04:03.606Z,30.37
2018-10-19T12:06:38.671Z,36.40
2018-10-19T12:09:13.240Z,33.67
2018-10-19T12:11:48.651Z,33.00
2018-10-19T12:14:24.993Z,30.97
2018-10-19T12:16:59.476Z,36.60
2018-10-19T12:19:34.456Z,34.57
2018-10-19T12:22:08.911Z,32.67
2018-10-19T12:24:43.322Z,34.50
2018-10-19T12:27:18.229Z,34.03
2018-10-19T12:29:52.890Z,32.30
2018-10-19T12:32:27.899Z,33.53
2018-10-19T12:35:02.424Z,36.60
2018-10-19T12:37:36.814Z,33.83
2018-10-19T12:40:12.149Z,34.10
2018-10-19T12:42:46.579Z,33.63
2018-10-19T12:46:35.064Z,29.47
2018-10-19T12:49:12.139Z,31.53
2018-10-19T12:51:46.769Z,35.13
2018-10-19T12:54:23.395Z,33.40
2018-10-19T12:56:58.035Z,32.90
2018-10-19T12:59:34.715Z,31.13
2018-10-19T13:02:12.929Z,30.83
2018-10-19T13:04:48.247Z,29.30
2018-10-19T13:07:23.661Z,28.30
2018-10-19T13:09:58.285Z,29.03
2018-10-19T13:12:34.585Z,29.57
2018-10-19T13:15:10.161Z,24.50
2018-10-19T13:17:45.728Z,27.90
2018-10-19T13:20:20.301Z,29.53
2018-10-19T13:22:55.186Z,27.77
2018-10-19T13:25:29.758Z,26.47
2018-10-19T13:28:04.365Z,32.03
2018-10-19T13:30:39.897Z,25.60
2018-10-19T13:33:14.912Z,26.67
2018-10-19T13:35:49.489Z,25.30
2018-10-19T13:38:24.205Z,24.27
2018-10-19T13:40:59.084Z,28.27
2018-10-19T13:43:33.417Z,29.37
2018-10-19T13:46:08.502Z,27.47
2018-10-19T13:48:43.087Z,26.63
2018-10-19T13:51:17.805Z,24.60
2018-10-19T13:53:52.792Z,25.60
2018-10-19T13:56:27.848Z,30.23
2018-10-19T13:59:03.180Z,27.10
2018-10-19T14:01:38.378Z,28.60
2018-10-19T14:04:13.619Z,25.33
2018-10-19T14:06:49.015Z,27.60
2018-10-19T14:09:23.351Z,23.93
2018-10-19T14:11:57.916Z,25.87
2018-10-19T14:14:32.976Z,28.50
2018-10-19T14:17:12.214Z,25.73
2018-10-19T14:19:46.564Z,26.17
2018-10-19T14:22:21.061Z,31.40
2018-10-19T14:24:55.614Z,31.20
2018-10-19T14:27:30.273Z,27.43
2018-10-19T14:32:46.581Z,30.37
2018-10-19T14:35:20.921Z,30.27
2018-10-19T14:37:55.353Z,29.60
2018-10-19T14:40:30.603Z,29.97
2018-10-19T14:43:05.056Z,28.50
2018-10-19T14:45:40.260Z,29.87
2018-10-19T14:48:14.754Z,33.03
2018-10-19T14:50:49.033Z,29.93
2018-10-19T14:53:24.195Z,28.87
2018-10-19T14:55:59.376Z,31.00
2018-10-19T14:58:34.588Z,31.30
2018-10-19T15:01:09.567Z,31.57
2018-10-19T15:03:44.399Z,27.73
2018-10-19T15:06:19.737Z,28.47
2018-10-19T15:08:54.344Z,29.07
2018-10-19T15:11:29.492Z,26.90
2018-10-19T15:14:03.754Z,32.73
2018-10-19T15:16:39.147Z,27.83
2018-10-19T15:19:14.131Z,32.60
2018-10-19T15:21:48.835Z,30.23
2018-10-19T15:24:23.154Z,30.37
2018-10-19T15:26:58.229Z,27.40
2018-10-19T15:29:33.349Z,26.10
2018-10-19T15:32:08.504Z,24.80
2018-10-19T15:34:43.148Z,33.37
2018-10-19T15:37:19.223Z,28.93
2018-10-19T15:39:54.687Z,34.43
2018-10-19T15:42:29.101Z,33.33
2018-10-19T15:45:04.834Z,30.90
2018-10-19T15:47:41.715Z,30.00
2018-10-19T15:50:16.775Z,34.37
2018-10-19T15:52:52.287Z,31.83
2018-10-19T15:55:26.720Z,32.57
2018-10-19T15:58:01.091Z,38.27
2018-10-19T16:00:36.165Z,31.20
2018-10-19T16:03:10.812Z,36.40
2018-10-19T16:05:45.711Z,30.90
2018-10-19T16:08:20.104Z,36.50
2018-10-19T16:10:54.462Z,30.37
2018-10-19T16:13:29.756Z,30.87
2018-10-19T16:16:05.135Z,32.20
2018-10-19T16:18:40.200Z,32.10
2018-10-19T16:21:14.866Z,34.57
2018-10-19T16:23:49.152Z,33.00
2018-10-19T16:26:24.105Z,32.53
2018-10-19T16:29:00.133Z,33.33
2018-10-19T16:31:35.293Z,37.27
2018-10-19T16:34:10.924Z,32.10
2018-10-19T16:36:45.376Z,37.30
2018-10-19T16:39:20.716Z,32.67
2018-10-19T16:41:56.288Z,31.60
2018-10-19T16:44:31.429Z,37.37
2018-10-19T16:47:06.856Z,31.80
2018-10-19T16:49:41.922Z,35.73
2018-10-19T16:52:16.259Z,37.27
2018-10-19T16:54:51.362Z,34.10
2018-10-19T16:57:25.868Z,33.60
2018-10-19T17:00:00.947Z,34.40
2018-10-19T17:02:35.799Z,33.70
2018-10-19T17:05:10.820Z,40.07
2018-10-19T17:07:45.138Z,40.73
2018-10-19T17:10:19.967Z,34.40
2018-10-19T17:13:00.279Z,41.13
2018-10-19T17:15:36.056Z,37.13
2018-10-19T17:18:28.575Z,36.90
2018-10-19T17:21:07.891Z,39.23
2018-10-19T17:27:06.312Z,46.20
2018-10-19T17:32:54.735Z,40.67
2018-10-19T17:35:53.791Z,42.50
2018-10-19T17:38:32.495Z,40.90
2018-10-19T17:41:10.135Z,44.23
2018-10-19T17:50:52.639Z,45.67
2018-10-19T17:53:27.724Z,42.00
2018-10-19T17:56:03.009Z,43.27
2018-10-19T17:58:37.369Z,47.90
2018-10-19T18:01:12.181Z,47.00
2018-10-19T18:03:47.264Z,39.67
2018-10-19T18:06:22.268Z,45.90
2018-10-19T18:08:56.714Z,45.90
2018-10-19T18:11:31.196Z,38.07
2018-10-19T18:14:06.412Z,38.67
2018-10-19T18:16:41.673Z,45.53
2018-10-19T18:19:17.112Z,46.70
2018-10-19T18:21:51.700Z,47.20
2018-10-19T18:24:26.325Z,47.13
2018-10-19T18:27:02.106Z,53.37
2018-10-19T18:29:36.416Z,48.07
2018-10-19T18:32:13.506Z,50.07
2018-10-19T18:34:48.712Z,43.87
2018-10-19T18:37:24.388Z,40.87
2018-10-19T18:40:00.465Z,45.20
2018-10-19T18:42:35.051Z,43.83
2018-10-19T18:45:11.409Z,48.33
2018-10-19T18:47:45.995Z,40.53
2018-10-19T18:50:22.159Z,48.07
2018-10-19T18:53:06.929Z,49.20
2018-10-19T18:55:41.667Z,44.40
2018-10-19T18:58:17.248Z,47.80
2018-10-19T19:01:02.342Z,47.90
2018-10-19T19:03:38.224Z,48.60
2018-10-19T19:06:14.571Z,51.67
2018-10-19T19:08:48.918Z,44.47
2018-10-19T19:11:23.758Z,46.43
2018-10-19T19:13:58.222Z,52.27
2018-10-19T19:16:34.750Z,45.90
2018-10-19T19:19:11.267Z,51.57
2018-10-19T19:21:46.519Z,50.10
2018-10-19T19:24:26.342Z,54.70
2018-10-19T19:27:00.808Z,53.73
2018-10-19T19:29:35.296Z,58.37
2018-10-19T19:32:11.531Z,47.50
2018-10-19T19:34:47.115Z,52.53
2018-10-19T19:37:22.696Z,48.00
2018-10-19T19:39:58.447Z,56.10
2018-10-19T19:42:39.149Z,47.57
2018-10-19T19:45:14.968Z,50.67
2018-10-19T19:47:54.782Z,50.43
2018-10-19T19:50:30.082Z,50.10
2018-10-19T19:53:05.858Z,49.93
2018-10-19T19:57:09.519Z,45.73
2018-10-19T19:59:45.077Z,50.67
2018-10-19T20:02:20.687Z,52.77
2018-10-19T20:04:56.154Z,56.17
2018-10-19T20:07:30.601Z,49.30
2018-10-19T20:10:06.664Z,49.77
2018-10-19T20:12:41.235Z,51.53
2018-10-19T20:15:17.236Z,49.80
2018-10-19T20:17:52.417Z,57.37
2018-10-19T20:20:26.937Z,50.90
2018-10-19T20:23:01.944Z,53.77
2018-10-19T20:25:36.354Z,56.00
2018-10-19T20:28:11.928Z,53.10
2018-10-19T20:30:47.439Z,52.47
2018-10-19T20:33:22.637Z,52.93
2018-10-19T20:36:00.988Z,52.10
2018-10-19T20:38:40.741Z,50.13
2018-10-19T20:41:19.679Z,52.93
2018-10-19T20:43:55.442Z,50.43
2018-10-19T20:46:29.799Z,58.53
2018-10-19T20:49:05.138Z,53.70
2018-10-19T20:51:40.060Z,46.90
2018-10-19T20:54:15.132Z,51.43
2018-10-19T20:56:49.721Z,53.87
2018-10-19T20:59:25.012Z,48.10
2018-10-19T21:02:00.040Z,51.90
2018-10-19T21:04:35.084Z,49.07
2018-10-19T21:07:09.573Z,46.17
2018-10-19T21:09:43.874Z,55.40
2018-10-19T21:12:18.247Z,51.80
2018-10-19T21:14:53.380Z,47.13
2018-10-19T21:17:28.640Z,45.07
2018-10-19T21:20:03.046Z,52.20
2018-10-19T21:22:37.560Z,50.43
2018-10-19T21:25:12.589Z,56.80
2018-10-19T21:27:47.048Z,58.93
2018-10-19T21:30:22.363Z,47.77
2018-10-19T21:32:56.708Z,48.87
2018-10-19T21:35:31.013Z,48.37
2018-10-19T21:38:05.693Z,52.03
2018-10-19T21:40:40.164Z,50.37
2018-10-19T21:43:15.501Z,46.83
2018-10-19T21:45:50.675Z,49.87
2018-10-19T21:48:25.379Z,46.80
2018-10-19T21:51:00.816Z,51.60
2018-10-19T21:53:36.443Z,54.00
2018-10-19T21:56:11.061Z,52.07
2018-10-19T21:58:45.720Z,52.17
2018-10-19T22:04:01.183Z,45.73
2018-10-19T22:06:36.333Z,51.70
2018-10-19T22:09:12.506Z,48.77
2018-10-19T22:11:46.973Z,54.50
2018-10-19T22:14:27.749Z,50.43
2018-10-19T22:17:02.137Z,45.23
2018-10-19T22:19:36.975Z,51.33
2018-10-19T22:22:11.371Z,51.70
2018-10-19T22:24:45.770Z,52.27
2018-10-19T22:27:21.105Z,53.67
2018-10-19T22:29:55.993Z,51.07
2018-10-19T22:32:31.151Z,52.13
2018-10-19T22:35:06.321Z,49.87
2018-10-19T22:37:40.604Z,51.33
2018-10-19T22:40:15.067Z,47.67
2018-10-19T22:42:50.472Z,51.63
2018-10-19T22:45:25.398Z,50.03
2018-10-19T22:48:00.203Z,51.50
2018-10-19T22:50:35.228Z,49.73
2018-10-19T23:00:12.721Z,44.27
2018-10-19T23:02:47.135Z,52.50
2018-10-19T23:05:22.169Z,48.93
2018-10-19T23:07:56.673Z,49.20
2018-10-19T23:10:30.991Z,46.83
2018-10-19T23:13:05.428Z,51.63
2018-10-19T23:15:40.445Z,48.23
2018-10-19T23:18:15.544Z,47.10
2018-10-19T23:20:50.105Z,44.37
2018-10-19T23:23:24.588Z,50.20
2018-10-19T23:25:59.682Z,50.77
2018-10-19T23:28:34.148Z,46.80
2018-10-19T23:31:09.217Z,48.07
2018-10-19T23:33:43.705Z,50.77
2018-10-19T23:36:18.017Z,49.83
2018-10-19T23:38:52.357Z,52.53
2018-10-19T23:41:26.741Z,51.47
2018-10-19T23:44:02.135Z,48.37
2018-10-19T23:46:36.533Z,46.20
2018-10-19T23:49:11.106Z,53.53
2018-10-19T23:51:45.415Z,47.03
2018-10-19T23:54:21.157Z,53.17
2018-10-19T23:56:55.672Z,51.43
2018-10-19T23:59:30.205Z,44.67
